Detalii statie UNIC PROD [00001D09]

Toti senzorii

Date Temperatura solului [C]Precipitatii [mm]Voltaj baterie [mV]Leaf Wetness [Min]HC Air temperature [C]HC Relative humidity [%]Punctul de roua [C]
medieminmaxsumaultimatimpmedieminmaxmediemediemin
2018-10-13 16:00:00 12.5 12.4 12.7 0 7030 20.15 19.84 20.67 31.31 2.4 1.4
2018-10-13 17:00:00 12.6 12.6 12.7 0 7010 18.98 18.15 19.75 30.8 1.1 0.7
2018-10-13 18:00:00 12.7 12.7 12.9 0 6904 16.63 15.81 17.89 33.95 0.4 0
2018-10-13 19:00:00 12.8 12.6 13 0.6 6904 13.21 10.98 15.69 43.4 0.6 -0.3
2018-10-13 20:00:00 12.9 12.8 13 0.2 6894 10.53 9.15 11.53 52.58 1 0.8
2018-10-13 21:00:00 12.9 12.9 13 0 6884 9.47 8.39 10.2 55.43 0.8 0.6
2018-10-13 22:00:00 12.9 12.7 13 0 6874 6.59 5.05 8.07 69.3 1.1 0.5
2018-10-13 23:00:00 12.9 12.8 13 0 6864 4.64 3.96 5.06 84.01 2 1.7
2018-10-14 00:00:00 12.8 12.8 13 0 6844 4.18 3.47 4.88 83.73 1.4 0.5
2018-10-14 01:00:00 12.7 12.7 12.9 0 6834 2.96 2.26 3.73 86.71 0.8 0.4
2018-10-14 02:00:00 12.7 12.6 12.8 0 6826 2.19 1.89 2.49 93.69 1.1 0.8
2018-10-14 03:00:00 12.6 12.5 12.7 0 6816 2.15 1.68 2.49 93.19 1 0.4
2018-10-14 04:00:00 12.4 12.4 12.6 0 6796 2.31 1.9 2.73 85.46 0 -0.3
2018-10-14 05:00:00 12.4 12.2 12.5 0 6796 1.43 1.03 1.79 92.4 0.2 0
2018-10-14 06:00:00 12.2 12.1 12.4 0 6776 0.99 0.77 1.21 96.4 0.3 0
2018-10-14 07:00:00 12.1 12 12.2 0 6816 0.97 0.38 2.07 98.66 0.7 -0.2
2018-10-14 08:00:00 12 11.9 12.2 0 7040 5.02 2.41 6.93 97.02 4.4 2.3
2018-10-14 09:00:00 12 11.9 12.1 0 7138 9.37 7.53 10.35 59.86 1.7 0.7
2018-10-14 10:00:00 11.8 11.7 11.9 0 7128 12.23 10.77 13.67 51.14 2.2 1.3
2018-10-14 11:00:00 11.7 11.6 11.8 0 7236 15.19 13.93 16.24 49.45 4.5 3.3
2018-10-14 12:00:00 11.7 11.6 11.8 0 7236 18.16 16.66 20.13 47.06 6.4 5.3
2018-10-14 13:00:00 11.7 11.7 11.8 0 7236 19.91 19.07 20.54 47.26 8 6.9
2018-10-14 14:00:00 11.7 11.7 11.9 0 7236 20.75 20.16 21.29 42.72 7.3 7.1
2018-10-14 15:00:00 11.8 11.6 11.9 0 7216 21.46 20.99 22.03 40.57 7.2 6.4
2018-10-14 16:00:00 11.9 11.9 12.1 0 7216 21.21 20.69 21.55 37.42 5.9 4.5
2018-10-14 17:00:00 12.1 12 12.3 0 6942 19.52 17.72 20.71 42.23 6 5.3
2018-10-14 18:00:00 12.2 12.2 12.4 0 6914 16.23 14.64 17.15 51.32 5.9 5.4
2018-10-14 19:00:00 12.4 12.2 12.6 0 6904 13.6 12.94 14.59 59.55 5.7 5.4
2018-10-14 20:00:00 12.4 12.4 12.6 0.2 6894 9.86 8.48 11.73 75.56 5.5 5
2018-10-14 21:00:00 12.6 12.6 12.6 0 6874 7.9 7.55 8.23 89.41 6.1 5.4
2018-10-14 22:00:00 12.6 12.5 12.7 1.2 6874 7.71 6.34 8.93 91.69 6.3 5.1
2018-10-14 23:00:00 12.5 12.4 12.6 0 6864 5.89 4.16 6.92 98.36 5.5 3.7
2018-10-15 00:00:00 12.5 12.4 12.6 0.2 6854 4.66 4.11 5.2 99.93 4.6 4.1
2018-10-15 01:00:00 12.4 12.3 12.6 0.4 6834 3.27 2.57 4.46 100 3.2 2.5
2018-10-15 02:00:00 12.3 12.2 12.5 0 6826 2.67 1.89 3.83 100 2.6 1.8
2018-10-15 03:00:00 12.3 12.3 12.4 0 6806 1.5 1.16 2.09 100 1.4 1.1
2018-10-15 04:00:00 12.2 12 12.3 0 6796 1.38 0.92 2.07 100 1.3 0.9
2018-10-15 05:00:00 12.1 12.1 12.2 0 6786 1.73 1.19 2.37 100 1.6 1.1
2018-10-15 06:00:00 12 11.9 12.1 0 6776 1.72 1.29 2.07 100 1.6 1.2
2018-10-15 07:00:00 11.9 11.8 12 0 6816 1.49 0.47 2.58 100 1.4 0.4
2018-10-15 08:00:00 11.8 11.7 11.9 0 7060 4.57 2.77 6.21 100 4.5 2.7
2018-10-15 09:00:00 11.7 11.6 11.8 0 7138 8.1 6.38 10.32 96.73 7.5 6.3
2018-10-15 10:00:00 11.6 11.5 11.7 0 7128 12.32 10.59 13.85 65.63 5.8 5.3
2018-10-15 11:00:00 11.5 11.4 11.6 0 7236 15.39 14.25 16.73 56.62 6.6 5.7
2018-10-15 12:00:00 11.4 11.4 11.6 0 7236 18.21 17.08 19.82 51.81 7.9 7.4
2018-10-15 13:00:00 11.4 11.4 11.5 0 7226 22.22 20.26 22.93 42.28 8.5 7.4
2018-10-15 14:00:00 11.5 11.4 11.6 0 7236 23.15 22.53 23.98 38.68 8 6.4
2018-10-15 15:00:00 11.6 11.6 11.8 0 7216 22.95 22.6 23.17 35.95 6.8 6.2